Time;durP1;ratioP1;P1;durP2;ratioP2;P2;SDS_P1;SDS_P2;PMS_P1;PMS_P2;Temp;Humidity;BMP_temperature;BMP_pressure;BME280_temperature;BME280_humidity;BME280_pressure;Samples;Min_cycle;Max_cycle;Signal;HPM_P1;HPM_P2
2022/03/19 00:01:53;;;;;;;26.27;10.77;;;;;;;;;;5031914;28;20036;-64
2022/03/19 00:04:19;;;;;;;32.80;11.40;;;;;;;;;;5031664;28;20045;-64
2022/03/19 00:06:46;;;;;;;29.40;11.27;;;;;;;;;;5031542;28;20040;-64
2022/03/19 00:09:13;;;;;;;28.17;11.02;;;;;;;;;;5031762;28;20385;-64
2022/03/19 00:11:40;;;;;;;32.58;11.50;;;;;;;;;;5031331;28;20037;-64
2022/03/19 00:14:06;;;;;;;29.35;10.80;;;;;;;;;;5032001;28;20076;-64
2022/03/19 00:16:32;;;;;;;31.70;11.25;;;;;;;;;;5031479;28;20393;-64
2022/03/19 00:18:59;;;;;;;33.05;11.65;;;;;;;;;;5031715;28;20022;-64
2022/03/19 00:21:25;;;;;;;31.90;12.13;;;;;;;;;;5035260;28;20108;-64
2022/03/19 00:23:51;;;;;;;27.10;11.40;;;;;;;;;;5035096;28;20045;-64
2022/03/19 00:26:19;;;;;;;27.27;10.82;;;;;;;;;;5035081;28;20028;-64
2022/03/19 00:28:46;;;;;;;36.72;11.35;;;;;;;;;;5034738;28;20115;-64
2022/03/19 00:31:12;;;;;;;30.67;10.48;;;;;;;;;;5035002;28;20366;-64
2022/03/19 00:33:38;;;;;;;23.30;9.75;;;;;;;;;;5034713;28;20045;-64
2022/03/19 00:36:04;;;;;;;24.63;10.48;;;;;;;;;;5035002;28;20018;-64
2022/03/19 00:38:31;;;;;;;32.25;10.70;;;;;;;;;;5034921;28;20060;-64
2022/03/19 00:40:57;;;;;;;30.17;10.73;;;;;;;;;;5033496;28;20072;-64
2022/03/19 00:43:23;;;;;;;25.15;10.23;;;;;;;;;;5034767;28;20033;-64
2022/03/19 00:45:50;;;;;;;29.60;9.63;;;;;;;;;;5034961;28;20057;-64
2022/03/19 00:48:17;;;;;;;36.22;10.35;;;;;;;;;;5034822;28;20124;-64
2022/03/19 00:50:43;;;;;;;31.38;10.63;;;;;;;;;;5034249;28;20108;-64
2022/03/19 00:53:11;;;;;;;28.33;9.98;;;;;;;;;;5034699;28;20029;-64
2022/03/19 00:55:37;;;;;;;30.08;10.23;;;;;;;;;;5034518;28;20034;-64
2022/03/19 00:58:03;;;;;;;34.42;10.32;;;;;;;;;;5034903;28;20041;-64
2022/03/19 01:00:29;;;;;;;29.98;9.73;;;;;;;;;;5034546;28;20100;-64
2022/03/19 01:02:56;;;;;;;17.27;9.50;;;;;;;;;;5034119;28;20056;-64
2022/03/19 01:05:23;;;;;;;31.92;11.25;;;;;;;;;;5034506;28;20067;-64
2022/03/19 01:07:54;;;;;;;22.55;9.80;;;;;;;;;;5034152;28;20355;-64
2022/03/19 01:10:23;;;;;;;31.02;10.65;;;;;;;;;;5034726;28;20064;-64
2022/03/19 01:12:49;;;;;;;23.40;9.60;;;;;;;;;;5033873;28;20036;-64
2022/03/19 01:15:16;;;;;;;36.60;9.93;;;;;;;;;;5034385;28;20044;-64
2022/03/19 01:17:43;;;;;;;26.55;10.43;;;;;;;;;;5033968;28;20041;-64
2022/03/19 01:20:10;;;;;;;29.85;10.25;;;;;;;;;;5034256;28;20028;-64
2022/03/19 01:22:37;;;;;;;27.67;10.18;;;;;;;;;;5033354;28;20104;-64
2022/03/19 01:25:05;;;;;;;27.95;9.75;;;;;;;;;;5033681;28;20041;-64
2022/03/19 01:27:32;;;;;;;22.75;9.38;;;;;;;;;;5034367;28;20029;-64
2022/03/19 01:29:58;;;;;;;30.70;8.50;;;;;;;;;;5033622;28;20025;-64
2022/03/19 01:32:25;;;;;;;25.88;9.80;;;;;;;;;;5033252;28;20104;-64
2022/03/19 01:34:51;;;;;;;22.25;9.05;;;;;;;;;;5033471;28;20033;-64
2022/03/19 01:37:17;;;;;;;27.58;9.30;;;;;;;;;;5033696;28;20025;-64
2022/03/19 01:39:43;;;;;;;25.67;8.57;;;;;;;;;;5029205;28;20018;-64
2022/03/19 01:42:09;;;;;;;25.73;8.45;;;;;;;;;;5033739;28;20049;-64
2022/03/19 01:44:35;;;;;;;25.23;8.52;;;;;;;;;;5033715;28;20108;-64
2022/03/19 01:47:01;;;;;;;17.20;8.27;;;;;;;;;;5032968;28;20025;-64
2022/03/19 01:49:28;;;;;;;21.05;8.10;;;;;;;;;;5033694;28;20084;-64
2022/03/19 01:51:55;;;;;;;20.02;7.85;;;;;;;;;;5032912;28;20045;-64
2022/03/19 01:54:25;;;;;;;27.35;8.90;;;;;;;;;;5033623;28;20037;-64
2022/03/19 01:56:52;;;;;;;21.67;7.95;;;;;;;;;;5033322;28;20524;-64
2022/03/19 01:59:21;;;;;;;19.55;7.10;;;;;;;;;;5015794;28;20021;-64
2022/03/19 02:01:47;;;;;;;17.20;8.18;;;;;;;;;;5033361;28;20026;-64
2022/03/19 02:04:13;;;;;;;19.67;8.10;;;;;;;;;;5033464;28;20022;-64
2022/03/19 02:06:41;;;;;;;16.33;7.53;;;;;;;;;;5033159;28;20076;-64
2022/03/19 02:09:07;;;;;;;23.50;7.68;;;;;;;;;;5032970;28;20040;-64
2022/03/19 02:11:35;;;;;;;18.50;7.78;;;;;;;;;;5033379;28;20056;-63
2022/03/19 02:14:01;;;;;;;16.48;7.82;;;;;;;;;;5032977;28;20031;-63
2022/03/19 02:16:28;;;;;;;17.92;8.13;;;;;;;;;;5032848;28;20067;-63
2022/03/19 02:18:54;;;;;;;18.85;8.30;;;;;;;;;;5032618;28;20036;-64
2022/03/19 02:21:20;;;;;;;14.60;8.02;;;;;;;;;;5032783;28;20382;-63
2022/03/19 02:26:44;;;;;;;19.67;7.97;;;;;;;;;;5033284;28;20048;-63
2022/03/19 02:29:11;;;;;;;20.13;7.20;;;;;;;;;;5032503;28;20021;-64
2022/03/19 02:31:39;;;;;;;16.23;7.43;;;;;;;;;;5032897;28;20619;-63
2022/03/19 02:34:08;;;;;;;24.83;7.65;;;;;;;;;;5032705;28;20037;-63
2022/03/19 02:36:35;;;;;;;18.42;7.18;;;;;;;;;;5032633;28;20112;-64
2022/03/19 02:39:08;;;;;;;23.27;8.65;;;;;;;;;;5032682;28;20033;-63
2022/03/19 02:41:34;;;;;;;;;;;;;;;;;;5033003;28;20437;-64
2022/03/19 02:44:00;;;;;;;18.45;6.95;;;;;;;;;;5032284;28;19936;-63
2022/03/19 02:46:38;;;;;;;12.65;6.28;;;;;;;;;;5032984;28;20037;-63
2022/03/19 02:49:05;;;;;;;13.15;6.78;;;;;;;;;;5032198;28;20033;-63
2022/03/19 02:51:33;;;;;;;27.63;9.32;;;;;;;;;;5032353;28;20021;-64
2022/03/19 02:53:59;;;;;;;17.73;6.68;;;;;;;;;;5032215;28;20023;-63
2022/03/19 02:56:26;;;;;;;24.13;6.38;;;;;;;;;;5032747;28;20033;-63
2022/03/19 02:58:52;;;;;;;33.47;8.77;;;;;;;;;;5030574;28;20469;-63
2022/03/19 03:01:19;;;;;;;17.38;6.50;;;;;;;;;;5030932;28;20022;-63
2022/03/19 03:03:48;;;;;;;16.92;7.60;;;;;;;;;;5030784;28;20026;-63
2022/03/19 03:06:14;;;;;;;17.05;6.93;;;;;;;;;;5029688;28;20030;-63
2022/03/19 03:08:41;;;;;;;13.98;7.40;;;;;;;;;;5030988;28;20113;-63
2022/03/19 03:11:07;;;;;;;20.00;6.72;;;;;;;;;;5028913;28;20493;-63
2022/03/19 03:13:33;;;;;;;16.95;6.82;;;;;;;;;;5026650;28;20037;-63
2022/03/19 03:15:59;;;;;;;23.85;7.38;;;;;;;;;;5031263;28;20056;-64
2022/03/19 03:18:25;;;;;;;14.60;7.45;;;;;;;;;;5031314;28;20025;-63
2022/03/19 03:20:51;;;;;;;15.98;6.88;;;;;;;;;;5031481;28;20021;-64
2022/03/19 03:23:18;;;;;;;16.17;7.20;;;;;;;;;;5031076;28;20497;-63
2022/03/19 03:25:44;;;;;;;11.95;6.18;;;;;;;;;;5032018;28;20017;-63
2022/03/19 03:28:10;;;;;;;21.75;6.20;;;;;;;;;;5031337;28;20021;-63
2022/03/19 03:30:36;;;;;;;14.63;7.15;;;;;;;;;;5031960;28;20033;-63
2022/03/19 03:33:02;;;;;;;24.85;7.32;;;;;;;;;;5031264;28;20120;-63
2022/03/19 03:35:28;;;;;;;23.00;6.75;;;;;;;;;;5032281;28;20025;-63
2022/03/19 03:37:55;;;;;;;17.85;6.22;;;;;;;;;;5032036;28;20029;-63
2022/03/19 03:40:21;;;;;;;17.25;7.15;;;;;;;;;;5014428;28;20396;-63
2022/03/19 03:42:48;;;;;;;14.10;6.78;;;;;;;;;;5031108;28;20022;-64
2022/03/19 03:45:14;;;;;;;20.13;7.18;;;;;;;;;;5028861;28;20428;-63
2022/03/19 03:47:40;;;;;;;16.95;6.40;;;;;;;;;;5026596;28;20079;-65
2022/03/19 03:50:06;;;;;;;17.00;6.68;;;;;;;;;;5029968;28;20029;-63
2022/03/19 03:52:32;;;;;;;17.42;6.32;;;;;;;;;;5022332;28;20057;-63
2022/03/19 03:54:58;;;;;;;19.13;7.43;;;;;;;;;;5017542;28;20026;-63
2022/03/19 03:57:24;;;;;;;18.65;7.05;;;;;;;;;;5019083;28;20026;-63
2022/03/19 03:59:52;;;;;;;19.67;6.57;;;;;;;;;;5034667;28;20026;-63
2022/03/19 04:02:18;;;;;;;23.92;7.43;;;;;;;;;;5034129;28;20049;-63
2022/03/19 04:04:44;;;;;;;15.18;6.80;;;;;;;;;;5034420;28;20110;-63
2022/03/19 04:07:11;;;;;;;16.92;6.80;;;;;;;;;;5021756;28;20030;-63
2022/03/19 04:09:37;;;;;;;16.35;6.35;;;;;;;;;;5016285;28;20032;-64
2022/03/19 04:12:03;;;;;;;14.32;7.05;;;;;;;;;;4999255;28;20106;-63
2022/03/19 04:14:30;;;;;;;14.45;6.40;;;;;;;;;;5017181;28;20092;-63
2022/03/19 04:16:56;;;;;;;18.70;7.70;;;;;;;;;;5020802;28;20017;-63
2022/03/19 04:19:22;;;;;;;14.18;6.53;;;;;;;;;;5021835;28;20029;-63
2022/03/19 04:21:48;;;;;;;20.98;7.40;;;;;;;;;;5026502;28;20026;-63
2022/03/19 04:24:14;;;;;;;18.20;6.30;;;;;;;;;;5031379;28;20076;-63
2022/03/19 04:26:40;;;;;;;23.30;6.38;;;;;;;;;;5033975;28;20434;-63
2022/03/19 04:29:06;;;;;;;23.67;6.68;;;;;;;;;;5033625;28;20029;-63
2022/03/19 04:31:32;;;;;;;23.00;7.07;;;;;;;;;;5020484;28;20398;-63
2022/03/19 04:33:58;;;;;;;20.15;6.90;;;;;;;;;;5020329;28;20069;-63
2022/03/19 04:36:32;;;;;;;18.10;6.95;;;;;;;;;;5023820;28;20405;-64
2022/03/19 04:39:02;;;;;;;14.35;6.15;;;;;;;;;;5030777;28;20030;-63
2022/03/19 04:41:28;;;;;;;16.05;6.38;;;;;;;;;;5033047;28;20524;-63
2022/03/19 04:43:55;;;;;;;11.85;6.50;;;;;;;;;;5033188;28;20018;-64
2022/03/19 04:46:21;;;;;;;26.40;8.20;;;;;;;;;;5032859;28;20465;-64
2022/03/19 04:48:48;;;;;;;15.85;7.28;;;;;;;;;;5025575;28;20097;-64
2022/03/19 04:51:17;;;;;;;18.17;6.72;;;;;;;;;;5030403;28;20021;-63
2022/03/19 04:53:43;;;;;;;17.45;7.13;;;;;;;;;;5029050;28;20059;-63
2022/03/19 04:56:09;;;;;;;11.75;6.50;;;;;;;;;;5026003;28;20022;-63
2022/03/19 04:58:35;;;;;;;13.75;6.50;;;;;;;;;;5026754;28;20025;-64
2022/03/19 05:01:02;;;;;;;18.02;7.07;;;;;;;;;;5029881;28;20577;-64
2022/03/19 05:03:28;;;;;;;18.05;6.20;;;;;;;;;;5033215;28;20477;-64
2022/03/19 05:05:55;;;;;;;23.60;7.25;;;;;;;;;;5034387;28;20384;-63
2022/03/19 05:08:21;;;;;;;17.90;6.75;;;;;;;;;;5034239;28;20034;-63
2022/03/19 05:13:31;;;;;;;19.45;7.10;;;;;;;;;;5034173;28;20402;-63
2022/03/19 05:15:58;;;;;;;18.67;6.55;;;;;;;;;;5033348;28;20022;-63
2022/03/19 05:18:24;;;;;;;15.30;6.40;;;;;;;;;;5033559;28;20029;-64
2022/03/19 05:20:51;;;;;;;19.77;6.35;;;;;;;;;;5032876;28;20021;-64
2022/03/19 05:23:17;;;;;;;20.50;6.18;;;;;;;;;;5030487;28;20149;-63
2022/03/19 05:25:43;;;;;;;16.80;7.50;;;;;;;;;;5033608;28;20420;-63
2022/03/19 05:28:09;;;;;;;13.05;6.68;;;;;;;;;;5033316;28;20033;-64
2022/03/19 05:30:37;;;;;;;17.90;6.88;;;;;;;;;;5033065;28;20109;-63
2022/03/19 05:33:03;;;;;;;17.33;7.47;;;;;;;;;;5033721;28;20530;-63
2022/03/19 05:35:30;;;;;;;18.33;6.72;;;;;;;;;;5032154;28;20059;-63
2022/03/19 05:37:59;;;;;;;21.45;8.00;;;;;;;;;;5033101;28;20113;-63
2022/03/19 05:40:25;;;;;;;21.67;7.78;;;;;;;;;;5032922;28;20021;-64
2022/03/19 05:42:52;;;;;;;26.17;7.70;;;;;;;;;;5033211;28;20079;-64
2022/03/19 05:45:20;;;;;;;20.92;7.13;;;;;;;;;;5032839;28;20107;-63
2022/03/19 05:47:46;;;;;;;21.15;7.22;;;;;;;;;;5033218;28;20025;-63
2022/03/19 05:50:12;;;;;;;19.20;7.35;;;;;;;;;;5033046;28;20049;-63
2022/03/19 05:52:38;;;;;;;15.77;6.22;;;;;;;;;;5032949;28;20040;-63
2022/03/19 05:55:04;;;;;;;22.40;6.90;;;;;;;;;;5033069;28;20508;-63
2022/03/19 05:57:31;;;;;;;15.95;6.47;;;;;;;;;;5032793;28;20396;-63
2022/03/19 05:59:57;;;;;;;19.42;7.65;;;;;;;;;;5030224;28;20064;-64
2022/03/19 06:02:23;;;;;;;17.77;7.38;;;;;;;;;;5032372;28;20044;-63
2022/03/19 06:04:49;;;;;;;16.25;6.53;;;;;;;;;;5032855;28;20104;-63
2022/03/19 06:07:15;;;;;;;19.13;6.88;;;;;;;;;;5032753;28;20032;-63
2022/03/19 06:09:42;;;;;;;21.50;7.13;;;;;;;;;;5032249;28;20034;-64
2022/03/19 06:12:08;;;;;;;21.27;7.47;;;;;;;;;;5032318;28;20055;-63
2022/03/19 06:14:34;;;;;;;17.92;6.90;;;;;;;;;;5031570;28;20018;-63
2022/03/19 06:17:00;;;;;;;17.50;8.07;;;;;;;;;;5031435;28;20496;-63
2022/03/19 06:19:26;;;;;;;15.43;6.53;;;;;;;;;;5031878;28;20075;-63
2022/03/19 06:21:52;;;;;;;13.40;6.60;;;;;;;;;;5032409;28;20045;-63
2022/03/19 06:24:21;;;;;;;23.45;7.47;;;;;;;;;;5032039;28;20124;-63
2022/03/19 06:26:47;;;;;;;23.88;7.28;;;;;;;;;;5031689;28;20029;-63
2022/03/19 06:29:13;;;;;;;15.60;7.38;;;;;;;;;;5032312;28;20025;-64
2022/03/19 06:31:39;;;;;;;25.98;7.43;;;;;;;;;;5031669;28;20071;-63
2022/03/19 06:34:05;;;;;;;18.98;8.55;;;;;;;;;;5031806;28;20079;-63
2022/03/19 06:39:17;;;;;;;16.15;6.88;;;;;;;;;;5026965;28;20075;-63
2022/03/19 06:41:43;;;;;;;17.58;6.85;;;;;;;;;;5031846;28;20478;-63
2022/03/19 06:44:09;;;;;;;19.70;6.55;;;;;;;;;;5031619;28;20036;-63
2022/03/19 06:46:35;;;;;;;17.67;7.00;;;;;;;;;;5031973;28;20027;-63
2022/03/19 06:49:01;;;;;;;16.80;7.55;;;;;;;;;;5029100;28;20034;-63
2022/03/19 06:51:28;;;;;;;18.17;5.97;;;;;;;;;;5026943;28;20063;-63
2022/03/19 06:53:54;;;;;;;15.45;7.05;;;;;;;;;;5030287;28;20010;-63
2022/03/19 06:56:20;;;;;;;28.60;9.02;;;;;;;;;;5028283;28;20107;-63
2022/03/19 06:58:47;;;;;;;18.83;6.68;;;;;;;;;;5020034;28;20469;-63
2022/03/19 07:01:16;;;;;;;21.92;8.10;;;;;;;;;;5019000;28;20075;-63
2022/03/19 07:03:43;;;;;;;17.50;6.80;;;;;;;;;;5029867;28;20483;-63
2022/03/19 07:06:10;;;;;;;17.45;7.28;;;;;;;;;;5030945;28;20030;-63
2022/03/19 07:08:36;;;;;;;20.27;7.22;;;;;;;;;;5031117;28;20037;-63
2022/03/19 07:11:02;;;;;;;24.25;6.63;;;;;;;;;;5029375;28;20029;-63
2022/03/19 07:13:28;;;;;;;17.08;7.13;;;;;;;;;;5031425;28;20359;-63
2022/03/19 07:15:55;;;;;;;13.90;7.05;;;;;;;;;;5029966;28;20458;-63
2022/03/19 07:18:21;;;;;;;20.75;7.60;;;;;;;;;;5029868;28;20033;-63
2022/03/19 07:20:47;;;;;;;16.33;6.95;;;;;;;;;;5029511;28;20485;-63
2022/03/19 07:23:13;;;;;;;16.98;7.03;;;;;;;;;;5029388;28;20025;-63
2022/03/19 07:25:40;;;;;;;16.88;6.32;;;;;;;;;;5030417;28;20057;-63
2022/03/19 07:28:10;;;;;;;13.70;7.22;;;;;;;;;;5020955;28;20037;-63
2022/03/19 07:30:36;;;;;;;19.90;7.22;;;;;;;;;;5035224;28;20025;-63
2022/03/19 07:33:03;;;;;;;15.63;7.72;;;;;;;;;;5032541;28;20373;-63
2022/03/19 07:35:29;;;;;;;18.40;7.70;;;;;;;;;;5029657;28;20045;-63
2022/03/19 07:37:57;;;;;;;16.27;7.75;;;;;;;;;;5028401;28;20045;-63
2022/03/19 07:43:09;;;;;;;18.60;8.40;;;;;;;;;;5030347;28;20025;-63
2022/03/19 07:45:36;;;;;;;21.50;8.93;;;;;;;;;;5031251;28;20512;-63
2022/03/19 07:48:03;;;;;;;15.88;7.45;;;;;;;;;;5032405;28;20037;-63
2022/03/19 07:50:30;;;;;;;20.38;8.00;;;;;;;;;;5027696;28;20033;-63
2022/03/19 07:52:56;;;;;;;16.95;8.70;;;;;;;;;;5029987;28;20124;-63
2022/03/19 07:55:24;;;;;;;19.55;8.05;;;;;;;;;;5033424;28;20160;-63
2022/03/19 07:57:50;;;;;;;20.35;8.95;;;;;;;;;;5027563;28;20117;-63
2022/03/19 08:00:16;;;;;;;21.90;9.32;;;;;;;;;;5034290;28;20026;-63
2022/03/19 08:02:42;;;;;;;19.70;9.52;;;;;;;;;;5033294;28;20030;-63
2022/03/19 08:05:09;;;;;;;24.90;10.05;;;;;;;;;;5033532;28;20064;-64
2022/03/19 08:07:37;;;;;;;21.17;10.10;;;;;;;;;;5030938;28;20017;-63
2022/03/19 08:10:07;;;;;;;20.98;9.57;;;;;;;;;;5013511;28;20489;-63
2022/03/19 08:12:33;;;;;;;21.88;9.73;;;;;;;;;;5032239;28;20552;-63
2022/03/19 08:15:00;;;;;;;22.80;10.57;;;;;;;;;;5033103;28;20527;-63
2022/03/19 08:17:29;;;;;;;20.23;9.82;;;;;;;;;;5033242;28;20036;-63
2022/03/19 08:19:58;;;;;;;22.77;9.85;;;;;;;;;;5028937;28;20076;-63
2022/03/19 08:22:24;;;;;;;18.80;10.35;;;;;;;;;;5032863;28;20068;-63
2022/03/19 08:24:52;;;;;;;23.13;10.80;;;;;;;;;;5033145;28;20041;-63
2022/03/19 08:27:18;;;;;;;22.23;10.25;;;;;;;;;;5033052;28;20025;-63
2022/03/19 08:29:44;;;;;;;23.02;11.82;;;;;;;;;;5033601;28;20497;-63
2022/03/19 08:32:11;;;;;;;22.65;11.23;;;;;;;;;;5033566;28;20374;-63
2022/03/19 08:34:37;;;;;;;21.13;11.05;;;;;;;;;;5031218;28;20061;-63
2022/03/19 08:37:04;;;;;;;24.17;11.05;;;;;;;;;;5032651;28;20029;-63
2022/03/19 08:42:14;;;;;;;22.60;11.82;;;;;;;;;;5029251;28;20092;-63
2022/03/19 08:44:41;;;;;;;26.40;12.15;;;;;;;;;;5014646;28;20088;-63
2022/03/19 08:47:07;;;;;;;26.83;11.50;;;;;;;;;;5031909;28;20053;-78
2022/03/19 08:49:33;;;;;;;24.15;12.13;;;;;;;;;;5031480;28;20395;-63
2022/03/19 08:51:59;;;;;;;29.48;12.80;;;;;;;;;;5030583;28;20029;-63
2022/03/19 08:54:25;;;;;;;24.85;12.32;;;;;;;;;;5030203;28;20029;-63
2022/03/19 08:56:52;;;;;;;27.50;11.75;;;;;;;;;;5032294;28;20036;-64
2022/03/19 08:59:20;;;;;;;24.70;11.75;;;;;;;;;;5031052;28;20112;-64
2022/03/19 09:01:47;;;;;;;25.88;12.23;;;;;;;;;;5029469;28;20020;-63
2022/03/19 09:04:14;;;;;;;26.10;12.50;;;;;;;;;;5029412;28;20029;-63
2022/03/19 09:06:41;;;;;;;26.88;12.98;;;;;;;;;;5030787;28;20017;-63
2022/03/19 09:09:07;;;;;;;31.70;12.88;;;;;;;;;;5033206;28;20112;-63
2022/03/19 09:11:34;;;;;;;30.65;13.10;;;;;;;;;;5032908;28;20132;-63
2022/03/19 09:14:02;;;;;;;30.08;14.25;;;;;;;;;;5032528;28;20075;-63
2022/03/19 09:16:28;;;;;;;28.88;13.13;;;;;;;;;;5032504;28;20021;-63
2022/03/19 09:18:55;;;;;;;28.70;14.13;;;;;;;;;;5032773;28;20402;-63
2022/03/19 09:21:21;;;;;;;30.40;14.07;;;;;;;;;;5032909;28;20029;-63
2022/03/19 09:23:49;;;;;;;28.00;13.05;;;;;;;;;;5031940;28;20044;-63
2022/03/19 09:26:18;;;;;;;29.95;14.07;;;;;;;;;;5033161;28;20042;-63
2022/03/19 09:28:48;;;;;;;26.50;13.82;;;;;;;;;;5020347;28;20119;-63
2022/03/19 09:31:16;;;;;;;37.17;14.95;;;;;;;;;;5033596;28;20035;-63
2022/03/19 09:33:43;;;;;;;30.15;15.80;;;;;;;;;;5031478;28;20033;-63
2022/03/19 09:36:09;;;;;;;27.45;13.95;;;;;;;;;;5030212;28;20106;-63
2022/03/19 09:38:35;;;;;;;30.33;14.40;;;;;;;;;;5027829;28;20025;-63
2022/03/19 09:41:01;;;;;;;26.08;13.50;;;;;;;;;;5032894;28;20448;-63
2022/03/19 09:43:31;;;;;;;31.45;15.07;;;;;;;;;;5032247;28;20615;-63
2022/03/19 09:45:57;;;;;;;32.78;14.50;;;;;;;;;;5032805;28;20116;-63
2022/03/19 09:48:23;;;;;;;31.50;14.93;;;;;;;;;;5031896;28;20037;-63
2022/03/19 09:50:50;;;;;;;29.70;14.20;;;;;;;;;;5026049;28;20018;-63
2022/03/19 09:53:17;;;;;;;29.65;14.68;;;;;;;;;;5030925;28;20515;-63
2022/03/19 09:55:44;;;;;;;26.05;14.60;;;;;;;;;;5032469;28;20044;-63
2022/03/19 09:58:12;;;;;;;29.08;14.38;;;;;;;;;;5032407;28;20022;-63
2022/03/19 10:00:38;;;;;;;27.73;14.82;;;;;;;;;;5032040;28;20105;-63
2022/03/19 10:03:10;;;;;;;29.85;14.88;;;;;;;;;;5031744;28;20104;-63
2022/03/19 10:08:39;;;;;;;37.20;16.30;;;;;;;;;;5030007;28;20033;-63
2022/03/19 10:11:05;;;;;;;;;;;;;;;;;;5032398;28;20033;-63
2022/03/19 10:13:42;;;;;;;30.77;15.30;;;;;;;;;;5105514;27;20384;-62
2022/03/19 10:16:08;;;;;;;28.13;14.60;;;;;;;;;;5100133;28;20017;-62
2022/03/19 10:18:35;;;;;;;34.50;15.45;;;;;;;;;;5106433;28;20069;-62
2022/03/19 10:21:01;;;;;;;36.22;16.00;;;;;;;;;;5092398;28;20054;-62
2022/03/19 10:23:34;;;;;;;31.58;15.50;;;;;;;;;;5101649;28;20046;-62
2022/03/19 10:26:01;;;;;;;34.15;16.33;;;;;;;;;;5096196;28;20120;-62
2022/03/19 10:28:31;;;;;;;30.10;15.43;;;;;;;;;;5105960;28;20035;-62
2022/03/19 10:30:57;;;;;;;29.60;15.65;;;;;;;;;;5098035;28;20036;-62
2022/03/19 10:33:27;;;;;;;30.75;15.90;;;;;;;;;;5091436;28;20020;-62
2022/03/19 10:36:13;;;;;;;34.33;18.17;;;;;;;;;;5093043;28;20468;-62
2022/03/19 10:38:44;;;;;;;34.97;16.20;;;;;;;;;;5091784;28;20035;-62
2022/03/19 10:41:11;;;;;;;30.95;15.77;;;;;;;;;;5090900;28;20024;-62
2022/03/19 10:43:37;;;;;;;38.95;18.25;;;;;;;;;;5095010;28;20494;-62
2022/03/19 10:46:04;;;;;;;31.38;16.15;;;;;;;;;;5091061;28;20052;-62
2022/03/19 10:48:30;;;;;;;30.88;15.52;;;;;;;;;;5096330;28;20119;-62
2022/03/19 10:50:57;;;;;;;32.22;16.02;;;;;;;;;;5100846;28;20064;-62
2022/03/19 10:53:24;;;;;;;28.17;16.38;;;;;;;;;;5096210;28;20033;-62
2022/03/19 10:55:50;;;;;;;30.10;15.80;;;;;;;;;;5094017;28;20021;-62
2022/03/19 10:58:16;;;;;;;37.58;17.42;;;;;;;;;;5091510;28;20077;-62
2022/03/19 11:00:44;;;;;;;32.15;17.05;;;;;;;;;;5094132;28;20069;-62
2022/03/19 11:03:13;;;;;;;34.38;17.17;;;;;;;;;;5084950;28;20081;-61
2022/03/19 11:05:41;;;;;;;38.13;16.73;;;;;;;;;;5080268;28;20348;-61
2022/03/19 11:08:07;;;;;;;33.17;16.38;;;;;;;;;;5086638;28;20024;-61
2022/03/19 11:10:35;;;;;;;32.60;16.98;;;;;;;;;;5096777;28;20524;-62
2022/03/19 11:13:03;;;;;;;31.83;17.65;;;;;;;;;;5093610;28;20048;-61
2022/03/19 11:15:35;;;;;;;35.30;17.00;;;;;;;;;;5090398;28;20032;-61
2022/03/19 11:18:04;;;;;;;39.70;18.40;;;;;;;;;;5086950;28;20513;-62
2022/03/19 11:20:30;;;;;;;35.00;17.25;;;;;;;;;;5083983;28;20455;-61
2022/03/19 11:22:59;;;;;;;35.00;17.50;;;;;;;;;;5070679;28;20039;-61
2022/03/19 11:25:30;;;;;;;35.22;17.02;;;;;;;;;;5066788;28;20027;-61
2022/03/19 11:27:58;;;;;;;35.13;17.60;;;;;;;;;;5071034;28;20031;-61
2022/03/19 11:30:28;;;;;;;35.10;17.83;;;;;;;;;;5064791;28;20028;-61
2022/03/19 11:33:24;;;;;;;32.55;17.55;;;;;;;;;;5072054;28;20033;-61
2022/03/19 11:36:00;;;;;;;34.53;17.25;;;;;;;;;;5069834;28;20051;-61
2022/03/19 11:38:27;;;;;;;35.35;17.92;;;;;;;;;;5070678;28;20098;-61
2022/03/19 11:40:58;;;;;;;39.90;18.88;;;;;;;;;;5077954;28;20027;-61
2022/03/19 11:43:27;;;;;;;32.35;18.05;;;;;;;;;;5063391;28;20610;-61
2022/03/19 11:46:03;;;;;;;37.13;18.00;;;;;;;;;;5066276;28;20426;-61
2022/03/19 11:48:38;;;;;;;37.38;18.52;;;;;;;;;;5071860;28;20112;-62
2022/03/19 11:51:19;;;;;;;38.25;18.55;;;;;;;;;;5064843;28;20040;-61
2022/03/19 11:53:51;;;;;;;34.05;17.00;;;;;;;;;;5068653;28;20033;-61
2022/03/19 11:56:19;;;;;;;40.17;19.50;;;;;;;;;;5070997;28;20024;-61
2022/03/19 11:58:46;;;;;;;36.10;17.67;;;;;;;;;;5065577;28;20036;-62
2022/03/19 12:01:13;;;;;;;40.75;19.00;;;;;;;;;;5067365;28;20067;-62
2022/03/19 12:03:57;;;;;;;39.53;19.27;;;;;;;;;;5072333;28;20036;-62
2022/03/19 12:06:30;;;;;;;36.35;18.02;;;;;;;;;;5064468;28;20074;-61
2022/03/19 12:08:56;;;;;;;33.65;17.50;;;;;;;;;;5070101;28;20037;-61
2022/03/19 12:11:24;;;;;;;38.90;19.35;;;;;;;;;;5074640;28;20027;-61
2022/03/19 12:13:51;;;;;;;40.58;19.83;;;;;;;;;;5078194;28;20368;-62
2022/03/19 12:16:35;;;;;;;38.67;18.15;;;;;;;;;;5075973;28;20028;-62
2022/03/19 12:19:02;;;;;;;45.90;20.10;;;;;;;;;;5072663;28;20029;-62
2022/03/19 12:21:33;;;;;;;38.58;19.90;;;;;;;;;;5073339;28;20085;-62
2022/03/19 12:24:06;;;;;;;36.05;19.23;;;;;;;;;;5071035;28;20017;-62
2022/03/19 12:26:42;;;;;;;39.78;21.10;;;;;;;;;;5077318;28;20494;-62
2022/03/19 12:29:10;;;;;;;36.38;19.30;;;;;;;;;;5067874;28;20024;-61
2022/03/19 12:31:38;;;;;;;39.63;19.83;;;;;;;;;;5068945;28;20031;-61
2022/03/19 12:34:05;;;;;;;40.75;20.10;;;;;;;;;;5071785;28;20017;-61
2022/03/19 12:36:31;;;;;;;36.85;19.00;;;;;;;;;;5069736;28;20040;-61
2022/03/19 12:39:03;;;;;;;38.25;20.10;;;;;;;;;;5072780;28;20029;-62
2022/03/19 12:41:33;;;;;;;39.07;19.87;;;;;;;;;;5070109;28;20045;-62
2022/03/19 12:44:07;;;;;;;39.03;20.70;;;;;;;;;;5072571;28;20412;-62
2022/03/19 12:46:33;;;;;;;39.97;19.77;;;;;;;;;;5076497;28;20032;-62
2022/03/19 12:49:02;;;;;;;42.20;21.92;;;;;;;;;;5065704;28;20075;-61
2022/03/19 12:51:29;;;;;;;37.42;20.08;;;;;;;;;;5067658;28;20089;-61
2022/03/19 12:53:55;;;;;;;38.60;19.25;;;;;;;;;;5070219;28;20041;-62
2022/03/19 12:56:23;;;;;;;41.63;19.70;;;;;;;;;;5063995;28;20016;-61
2022/03/19 12:58:50;;;;;;;39.03;20.17;;;;;;;;;;5070200;28;20029;-61
2022/03/19 13:01:18;;;;;;;42.10;22.05;;;;;;;;;;5071561;28;20036;-61
2022/03/19 13:03:45;;;;;;;38.58;19.88;;;;;;;;;;5069105;28;20028;-61
2022/03/19 13:06:12;;;;;;;42.88;21.00;;;;;;;;;;5070825;28;20025;-61
2022/03/19 13:08:44;;;;;;;40.42;20.65;;;;;;;;;;5069653;28;20033;-62
2022/03/19 13:11:13;;;;;;;;;;;;;;;;;;5066950;28;20026;-62
2022/03/19 13:13:43;;;;;;;40.88;20.30;;;;;;;;;;5057008;28;19928;-62
2022/03/19 13:16:09;;;;;;;49.05;22.67;;;;;;;;;;5067738;28;20111;-62
2022/03/19 13:18:36;;;;;;;40.15;20.50;;;;;;;;;;5068678;28;20036;-61
2022/03/19 13:21:07;;;;;;;44.08;21.60;;;;;;;;;;5070750;28;20112;-62
2022/03/19 13:23:33;;;;;;;41.95;22.13;;;;;;;;;;5068436;28;20499;-61
2022/03/19 13:25:59;;;;;;;44.50;21.95;;;;;;;;;;5067838;28;20090;-61
2022/03/19 13:28:27;;;;;;;42.67;22.40;;;;;;;;;;5072042;28;20037;-61
2022/03/19 13:30:55;;;;;;;46.65;22.35;;;;;;;;;;5067512;28;20438;-61
2022/03/19 13:33:25;;;;;;;46.70;23.63;;;;;;;;;;5072101;28;20032;-61
2022/03/19 13:35:52;;;;;;;45.65;23.27;;;;;;;;;;5076805;28;20035;-61
2022/03/19 13:38:23;;;;;;;43.78;22.73;;;;;;;;;;5074585;28;20052;-61
2022/03/19 13:40:52;;;;;;;44.45;22.77;;;;;;;;;;5065060;28;20074;-61
2022/03/19 13:43:22;;;;;;;42.60;22.70;;;;;;;;;;5070857;28;20029;-62
2022/03/19 13:45:49;;;;;;;44.45;23.48;;;;;;;;;;5076213;28;20365;-61
2022/03/19 13:48:15;;;;;;;49.25;24.10;;;;;;;;;;5075526;28;20036;-62
2022/03/19 13:50:55;;;;;;;47.83;22.98;;;;;;;;;;5076421;28;20028;-61
2022/03/19 13:53:21;;;;;;;43.47;22.65;;;;;;;;;;5072190;28;20043;-61
2022/03/19 13:55:48;;;;;;;49.72;25.25;;;;;;;;;;5075406;28;20078;-61
2022/03/19 13:58:14;;;;;;;44.40;24.13;;;;;;;;;;5072695;28;20027;-61
2022/03/19 14:00:41;;;;;;;48.80;23.70;;;;;;;;;;5072822;28;20036;-61
2022/03/19 14:03:07;;;;;;;46.63;23.20;;;;;;;;;;5076743;28;20036;-61
2022/03/19 14:05:34;;;;;;;49.28;24.25;;;;;;;;;;5072549;28;20095;-61
2022/03/19 14:08:03;;;;;;;46.03;23.90;;;;;;;;;;5070479;28;20083;-62
2022/03/19 14:10:49;;;;;;;49.08;24.23;;;;;;;;;;5074233;28;20037;-61
2022/03/19 14:13:25;;;;;;;44.28;24.08;;;;;;;;;;5067570;28;20040;-61
2022/03/19 14:15:53;;;;;;;48.05;24.52;;;;;;;;;;5071614;28;20021;-61
2022/03/19 14:18:29;;;;;;;48.22;24.48;;;;;;;;;;5072886;28;20029;-61
2022/03/19 14:20:56;;;;;;;49.63;24.83;;;;;;;;;;5070569;28;20035;-61
2022/03/19 14:23:23;;;;;;;50.17;24.27;;;;;;;;;;5075220;28;20502;-61
2022/03/19 14:25:51;;;;;;;53.05;23.80;;;;;;;;;;5074085;28;20100;-61
2022/03/19 14:28:19;;;;;;;50.47;25.35;;;;;;;;;;5075906;28;20029;-61
2022/03/19 14:30:47;;;;;;;51.63;25.67;;;;;;;;;;5075820;28;20068;-61
2022/03/19 14:33:13;;;;;;;49.75;24.75;;;;;;;;;;5073392;28;20495;-61
2022/03/19 14:35:50;;;;;;;50.92;26.02;;;;;;;;;;5071109;28;20024;-61
2022/03/19 14:38:17;;;;;;;48.08;25.45;;;;;;;;;;5071885;28;20017;-61
2022/03/19 14:40:44;;;;;;;47.72;25.08;;;;;;;;;;5069749;28;20024;-61
2022/03/19 14:43:10;;;;;;;52.58;27.00;;;;;;;;;;5067054;28;20654;-61